sensor_id;sensor_type;location;lat;lon;timestamp;temperature;humidity
44117;DHT22;29781;49.480;8.512;2024-03-06T00:01:58;7.50;99.90
44117;DHT22;29781;49.480;8.512;2024-03-06T00:04:24;7.50;99.90
44117;DHT22;29781;49.480;8.512;2024-03-06T00:06:49;7.30;99.90
44117;DHT22;29781;49.480;8.512;2024-03-06T00:09:17;7.30;99.90
44117;DHT22;29781;49.480;8.512;2024-03-06T00:11:44;7.40;99.90
44117;DHT22;29781;49.480;8.512;2024-03-06T00:14:09;7.20;99.90
44117;DHT22;29781;49.480;8.512;2024-03-06T00:16:38;7.10;99.90
44117;DHT22;29781;49.480;8.512;2024-03-06T00:19:04;7.30;99.90
44117;DHT22;29781;49.480;8.512;2024-03-06T00:21:29;7.50;99.90
44117;DHT22;29781;49.480;8.512;2024-03-06T00:23:55;7.40;99.90
44117;DHT22;29781;49.480;8.512;2024-03-06T00:26:21;7.40;99.90
44117;DHT22;29781;49.480;8.512;2024-03-06T00:28:47;7.60;99.90
44117;DHT22;29781;49.480;8.512;2024-03-06T00:31:13;7.80;99.90
44117;DHT22;29781;49.480;8.512;2024-03-06T00:33:39;7.90;99.90
44117;DHT22;29781;49.480;8.512;2024-03-06T00:36:05;7.80;99.90
44117;DHT22;29781;49.480;8.512;2024-03-06T00:38:31;7.80;99.90
44117;DHT22;29781;49.480;8.512;2024-03-06T00:40:57;7.80;99.90
44117;DHT22;29781;49.480;8.512;2024-03-06T00:43:23;7.90;99.90
44117;DHT22;29781;49.480;8.512;2024-03-06T00:45:48;7.90;99.90
44117;DHT22;29781;49.480;8.512;2024-03-06T00:48:14;7.70;99.90
44117;DHT22;29781;49.480;8.512;2024-03-06T00:50:39;7.40;99.90
44117;DHT22;29781;49.480;8.512;2024-03-06T00:53:06;7.30;99.90
44117;DHT22;29781;49.480;8.512;2024-03-06T00:55:32;7.50;99.90
44117;DHT22;29781;49.480;8.512;2024-03-06T00:57:57;7.70;99.90
44117;DHT22;29781;49.480;8.512;2024-03-06T01:00:23;7.70;99.90
44117;DHT22;29781;49.480;8.512;2024-03-06T01:02:48;7.70;99.90
44117;DHT22;29781;49.480;8.512;2024-03-06T01:05:14;7.60;99.90
44117;DHT22;29781;49.480;8.512;2024-03-06T01:07:40;7.60;99.90
44117;DHT22;29781;49.480;8.512;2024-03-06T01:10:06;7.50;99.90
44117;DHT22;29781;49.480;8.512;2024-03-06T01:12:32;7.50;99.90
44117;DHT22;29781;49.480;8.512;2024-03-06T01:14:58;7.50;99.90
44117;DHT22;29781;49.480;8.512;2024-03-06T01:17:23;7.40;99.90
44117;DHT22;29781;49.480;8.512;2024-03-06T01:19:49;7.40;99.90
44117;DHT22;29781;49.480;8.512;2024-03-06T01:22:15;7.50;99.90
44117;DHT22;29781;49.480;8.512;2024-03-06T01:24:40;7.40;99.90
44117;DHT22;29781;49.480;8.512;2024-03-06T01:27:06;7.20;99.90
44117;DHT22;29781;49.480;8.512;2024-03-06T01:29:31;7.00;99.90
44117;DHT22;29781;49.480;8.512;2024-03-06T01:31:58;7.00;99.90
44117;DHT22;29781;49.480;8.512;2024-03-06T01:34:24;6.80;99.90
44117;DHT22;29781;49.480;8.512;2024-03-06T01:36:50;6.50;99.90
44117;DHT22;29781;49.480;8.512;2024-03-06T01:39:16;6.50;99.90
44117;DHT22;29781;49.480;8.512;2024-03-06T01:41:45;6.40;99.90
44117;DHT22;29781;49.480;8.512;2024-03-06T01:44:12;6.30;99.90
44117;DHT22;29781;49.480;8.512;2024-03-06T01:46:38;6.10;99.90
44117;DHT22;29781;49.480;8.512;2024-03-06T01:49:03;6.00;99.90
44117;DHT22;29781;49.480;8.512;2024-03-06T01:51:29;6.00;99.90
44117;DHT22;29781;49.480;8.512;2024-03-06T01:53:55;5.80;99.90
44117;DHT22;29781;49.480;8.512;2024-03-06T01:56:22;5.70;99.90
44117;DHT22;29781;49.480;8.512;2024-03-06T01:58:47;5.60;99.90
44117;DHT22;29781;49.480;8.512;2024-03-06T02:01:14;5.50;99.90
44117;DHT22;29781;49.480;8.512;2024-03-06T02:03:40;5.60;99.90
44117;DHT22;29781;49.480;8.512;2024-03-06T02:06:06;5.80;99.90
44117;DHT22;29781;49.480;8.512;2024-03-06T02:08:32;5.70;99.90
44117;DHT22;29781;49.480;8.512;2024-03-06T02:10:58;5.60;99.90
44117;DHT22;29781;49.480;8.512;2024-03-06T02:13:27;5.60;99.90
44117;DHT22;29781;49.480;8.512;2024-03-06T02:15:53;5.50;99.90
44117;DHT22;29781;49.480;8.512;2024-03-06T02:18:18;5.40;99.90
44117;DHT22;29781;49.480;8.512;2024-03-06T02:20:44;5.30;99.90
44117;DHT22;29781;49.480;8.512;2024-03-06T02:23:11;5.40;99.90
44117;DHT22;29781;49.480;8.512;2024-03-06T02:25:36;5.40;99.90
44117;DHT22;29781;49.480;8.512;2024-03-06T02:28:02;5.60;99.90
44117;DHT22;29781;49.480;8.512;2024-03-06T02:30:27;5.90;99.90
44117;DHT22;29781;49.480;8.512;2024-03-06T02:32:55;6.20;99.90
44117;DHT22;29781;49.480;8.512;2024-03-06T02:35:21;6.20;99.90
44117;DHT22;29781;49.480;8.512;2024-03-06T02:37:46;6.40;99.90
44117;DHT22;29781;49.480;8.512;2024-03-06T02:40:12;6.50;99.90
44117;DHT22;29781;49.480;8.512;2024-03-06T02:42:38;6.40;99.90
44117;DHT22;29781;49.480;8.512;2024-03-06T02:45:05;6.30;99.90
44117;DHT22;29781;49.480;8.512;2024-03-06T02:47:31;6.20;99.90
44117;DHT22;29781;49.480;8.512;2024-03-06T02:49:57;6.30;99.90
44117;DHT22;29781;49.480;8.512;2024-03-06T02:52:22;6.20;99.90
44117;DHT22;29781;49.480;8.512;2024-03-06T02:54:48;6.30;99.90
44117;DHT22;29781;49.480;8.512;2024-03-06T02:57:13;6.40;99.90
44117;DHT22;29781;49.480;8.512;2024-03-06T02:59:42;6.50;99.90
44117;DHT22;29781;49.480;8.512;2024-03-06T03:02:08;6.70;99.90
44117;DHT22;29781;49.480;8.512;2024-03-06T03:04:34;6.80;99.90
44117;DHT22;29781;49.480;8.512;2024-03-06T03:06:59;6.90;99.90
44117;DHT22;29781;49.480;8.512;2024-03-06T03:09:25;6.70;99.90
44117;DHT22;29781;49.480;8.512;2024-03-06T03:11:50;6.60;99.90
44117;DHT22;29781;49.480;8.512;2024-03-06T03:14:16;6.50;99.90
44117;DHT22;29781;49.480;8.512;2024-03-06T03:16:41;6.40;99.90
44117;DHT22;29781;49.480;8.512;2024-03-06T03:19:07;6.20;99.90
44117;DHT22;29781;49.480;8.512;2024-03-06T03:21:34;6.20;99.90
44117;DHT22;29781;49.480;8.512;2024-03-06T03:23:59;6.40;99.90
44117;DHT22;29781;49.480;8.512;2024-03-06T03:26:25;6.40;99.90
44117;DHT22;29781;49.480;8.512;2024-03-06T03:28:50;6.60;99.90
44117;DHT22;29781;49.480;8.512;2024-03-06T03:31:16;6.70;99.90
44117;DHT22;29781;49.480;8.512;2024-03-06T03:33:42;6.80;99.90
44117;DHT22;29781;49.480;8.512;2024-03-06T03:36:08;6.90;99.90
44117;DHT22;29781;49.480;8.512;2024-03-06T03:38:37;6.90;99.90
44117;DHT22;29781;49.480;8.512;2024-03-06T03:41:12;7.00;99.90
44117;DHT22;29781;49.480;8.512;2024-03-06T03:43:41;6.90;99.90
44117;DHT22;29781;49.480;8.512;2024-03-06T03:46:07;7.00;99.90
44117;DHT22;29781;49.480;8.512;2024-03-06T03:48:34;7.00;99.90
44117;DHT22;29781;49.480;8.512;2024-03-06T03:51:02;7.00;99.90
44117;DHT22;29781;49.480;8.512;2024-03-06T03:53:30;6.90;99.90
44117;DHT22;29781;49.480;8.512;2024-03-06T03:55:55;6.70;99.90
44117;DHT22;29781;49.480;8.512;2024-03-06T03:58:21;6.40;99.90
44117;DHT22;29781;49.480;8.512;2024-03-06T04:00:46;6.20;99.90
44117;DHT22;29781;49.480;8.512;2024-03-06T04:03:12;6.10;99.90
44117;DHT22;29781;49.480;8.512;2024-03-06T04:05:39;6.10;99.90
44117;DHT22;29781;49.480;8.512;2024-03-06T04:08:04;6.20;99.90
44117;DHT22;29781;49.480;8.512;2024-03-06T04:10:31;6.30;99.90
44117;DHT22;29781;49.480;8.512;2024-03-06T04:12:58;6.30;99.90
44117;DHT22;29781;49.480;8.512;2024-03-06T04:15:25;6.10;99.90
44117;DHT22;29781;49.480;8.512;2024-03-06T04:17:50;5.80;99.90
44117;DHT22;29781;49.480;8.512;2024-03-06T04:20:16;5.40;99.90
44117;DHT22;29781;49.480;8.512;2024-03-06T04:22:41;5.20;99.90
44117;DHT22;29781;49.480;8.512;2024-03-06T04:25:07;5.10;99.90
44117;DHT22;29781;49.480;8.512;2024-03-06T04:27:33;5.00;99.90
44117;DHT22;29781;49.480;8.512;2024-03-06T04:29:59;5.10;99.90
44117;DHT22;29781;49.480;8.512;2024-03-06T04:32:24;5.40;99.90
44117;DHT22;29781;49.480;8.512;2024-03-06T04:34:50;5.50;99.90
44117;DHT22;29781;49.480;8.512;2024-03-06T04:37:15;5.40;99.90
44117;DHT22;29781;49.480;8.512;2024-03-06T04:39:41;5.50;99.90
44117;DHT22;29781;49.480;8.512;2024-03-06T04:42:06;5.40;99.90
44117;DHT22;29781;49.480;8.512;2024-03-06T04:44:36;5.50;99.90
44117;DHT22;29781;49.480;8.512;2024-03-06T04:47:01;5.60;99.90
44117;DHT22;29781;49.480;8.512;2024-03-06T04:49:27;5.60;99.90
44117;DHT22;29781;49.480;8.512;2024-03-06T04:51:53;5.60;99.90
44117;DHT22;29781;49.480;8.512;2024-03-06T04:54:18;5.50;99.90
44117;DHT22;29781;49.480;8.512;2024-03-06T04:56:44;5.60;99.90
44117;DHT22;29781;49.480;8.512;2024-03-06T04:59:09;5.60;99.90
44117;DHT22;29781;49.480;8.512;2024-03-06T05:01:35;5.90;99.90
44117;DHT22;29781;49.480;8.512;2024-03-06T05:04:00;6.10;99.90
44117;DHT22;29781;49.480;8.512;2024-03-06T05:06:26;6.30;99.90
44117;DHT22;29781;49.480;8.512;2024-03-06T05:08:51;6.40;99.90
44117;DHT22;29781;49.480;8.512;2024-03-06T05:11:17;6.10;99.90
44117;DHT22;29781;49.480;8.512;2024-03-06T05:13:43;6.10;99.90
44117;DHT22;29781;49.480;8.512;2024-03-06T05:16:08;5.90;99.90
44117;DHT22;29781;49.480;8.512;2024-03-06T05:18:34;5.70;99.90
44117;DHT22;29781;49.480;8.512;2024-03-06T05:21:00;5.50;99.90
44117;DHT22;29781;49.480;8.512;2024-03-06T05:23:27;5.50;99.90
44117;DHT22;29781;49.480;8.512;2024-03-06T05:25:52;5.60;99.90
44117;DHT22;29781;49.480;8.512;2024-03-06T05:28:18;5.60;99.90
44117;DHT22;29781;49.480;8.512;2024-03-06T05:30:43;5.70;99.90
44117;DHT22;29781;49.480;8.512;2024-03-06T05:33:09;5.80;99.90
44117;DHT22;29781;49.480;8.512;2024-03-06T05:35:34;5.70;99.90
44117;DHT22;29781;49.480;8.512;2024-03-06T05:38:00;5.50;99.90
44117;DHT22;29781;49.480;8.512;2024-03-06T05:40:25;5.40;99.90
44117;DHT22;29781;49.480;8.512;2024-03-06T05:42:51;5.40;99.90
44117;DHT22;29781;49.480;8.512;2024-03-06T05:45:16;5.60;99.90
44117;DHT22;29781;49.480;8.512;2024-03-06T05:47:42;5.80;99.90
44117;DHT22;29781;49.480;8.512;2024-03-06T05:50:08;5.90;99.90
44117;DHT22;29781;49.480;8.512;2024-03-06T05:52:36;6.00;99.90
44117;DHT22;29781;49.480;8.512;2024-03-06T05:55:02;5.90;99.90
44117;DHT22;29781;49.480;8.512;2024-03-06T05:57:27;6.00;99.90
44117;DHT22;29781;49.480;8.512;2024-03-06T05:59:53;6.10;99.90
44117;DHT22;29781;49.480;8.512;2024-03-06T06:02:19;6.00;99.90
44117;DHT22;29781;49.480;8.512;2024-03-06T06:04:47;6.00;99.90
44117;DHT22;29781;49.480;8.512;2024-03-06T06:07:13;5.90;99.90
44117;DHT22;29781;49.480;8.512;2024-03-06T06:09:38;5.80;99.90
44117;DHT22;29781;49.480;8.512;2024-03-06T06:12:04;5.70;99.90
44117;DHT22;29781;49.480;8.512;2024-03-06T06:14:29;5.80;99.90
44117;DHT22;29781;49.480;8.512;2024-03-06T06:16:58;5.80;99.90
44117;DHT22;29781;49.480;8.512;2024-03-06T06:19:24;5.90;99.90
44117;DHT22;29781;49.480;8.512;2024-03-06T06:21:53;6.20;99.90
44117;DHT22;29781;49.480;8.512;2024-03-06T06:24:19;6.30;99.90
44117;DHT22;29781;49.480;8.512;2024-03-06T06:26:44;6.40;99.90
44117;DHT22;29781;49.480;8.512;2024-03-06T06:29:10;6.50;99.90
44117;DHT22;29781;49.480;8.512;2024-03-06T06:31:36;6.50;99.90
44117;DHT22;29781;49.480;8.512;2024-03-06T06:34:01;6.30;99.90
44117;DHT22;29781;49.480;8.512;2024-03-06T06:36:27;6.00;99.90
44117;DHT22;29781;49.480;8.512;2024-03-06T06:38:53;5.70;99.90
44117;DHT22;29781;49.480;8.512;2024-03-06T06:41:19;5.60;99.90
44117;DHT22;29781;49.480;8.512;2024-03-06T06:43:45;5.40;99.90
44117;DHT22;29781;49.480;8.512;2024-03-06T06:46:10;5.40;99.90
44117;DHT22;29781;49.480;8.512;2024-03-06T06:48:36;5.40;99.90
44117;DHT22;29781;49.480;8.512;2024-03-06T06:51:02;5.50;99.90
44117;DHT22;29781;49.480;8.512;2024-03-06T06:53:31;5.70;99.90
44117;DHT22;29781;49.480;8.512;2024-03-06T06:55:58;5.80;99.90
44117;DHT22;29781;49.480;8.512;2024-03-06T06:58:23;5.80;99.90
44117;DHT22;29781;49.480;8.512;2024-03-06T07:00:49;6.00;99.90
44117;DHT22;29781;49.480;8.512;2024-03-06T07:03:16;6.00;99.90
44117;DHT22;29781;49.480;8.512;2024-03-06T07:05:41;6.10;99.90
44117;DHT22;29781;49.480;8.512;2024-03-06T07:08:07;6.20;99.90
44117;DHT22;29781;49.480;8.512;2024-03-06T07:10:33;6.40;99.90
44117;DHT22;29781;49.480;8.512;2024-03-06T07:13:01;6.70;99.90
44117;DHT22;29781;49.480;8.512;2024-03-06T07:15:28;6.80;99.90
44117;DHT22;29781;49.480;8.512;2024-03-06T07:17:54;6.70;99.90
44117;DHT22;29781;49.480;8.512;2024-03-06T07:20:19;6.70;99.90
44117;DHT22;29781;49.480;8.512;2024-03-06T07:22:45;6.90;99.90
44117;DHT22;29781;49.480;8.512;2024-03-06T07:25:10;7.10;99.90
44117;DHT22;29781;49.480;8.512;2024-03-06T07:27:36;7.20;99.90
44117;DHT22;29781;49.480;8.512;2024-03-06T07:30:01;7.40;99.90
44117;DHT22;29781;49.480;8.512;2024-03-06T07:32:27;7.10;99.90
44117;DHT22;29781;49.480;8.512;2024-03-06T07:34:53;6.60;99.90
44117;DHT22;29781;49.480;8.512;2024-03-06T07:37:18;6.30;99.90
44117;DHT22;29781;49.480;8.512;2024-03-06T07:39:44;6.10;99.90
44117;DHT22;29781;49.480;8.512;2024-03-06T07:42:11;6.00;99.90
44117;DHT22;29781;49.480;8.512;2024-03-06T07:44:36;5.90;99.90
44117;DHT22;29781;49.480;8.512;2024-03-06T07:47:02;5.90;99.90
44117;DHT22;29781;49.480;8.512;2024-03-06T07:49:28;5.90;99.90
44117;DHT22;29781;49.480;8.512;2024-03-06T07:51:53;5.90;99.90
44117;DHT22;29781;49.480;8.512;2024-03-06T07:54:19;6.10;99.90
44117;DHT22;29781;49.480;8.512;2024-03-06T07:56:44;6.20;99.90
44117;DHT22;29781;49.480;8.512;2024-03-06T07:59:10;6.20;99.90
44117;DHT22;29781;49.480;8.512;2024-03-06T08:01:38;6.10;99.90
44117;DHT22;29781;49.480;8.512;2024-03-06T08:04:03;6.20;99.90
44117;DHT22;29781;49.480;8.512;2024-03-06T08:06:29;6.20;99.90
44117;DHT22;29781;49.480;8.512;2024-03-06T08:08:59;6.20;99.90
44117;DHT22;29781;49.480;8.512;2024-03-06T08:11:24;6.10;99.90
44117;DHT22;29781;49.480;8.512;2024-03-06T08:13:56;6.20;99.90
44117;DHT22;29781;49.480;8.512;2024-03-06T08:16:21;6.10;99.90
44117;DHT22;29781;49.480;8.512;2024-03-06T08:18:47;6.20;99.90
44117;DHT22;29781;49.480;8.512;2024-03-06T08:21:13;6.20;99.90
44117;DHT22;29781;49.480;8.512;2024-03-06T08:23:38;6.30;99.90
44117;DHT22;29781;49.480;8.512;2024-03-06T08:26:04;6.20;99.90
44117;DHT22;29781;49.480;8.512;2024-03-06T08:28:29;6.30;99.90
44117;DHT22;29781;49.480;8.512;2024-03-06T08:30:55;6.30;99.90
44117;DHT22;29781;49.480;8.512;2024-03-06T08:33:20;6.50;99.90
44117;DHT22;29781;49.480;8.512;2024-03-06T08:35:47;6.60;99.90
44117;DHT22;29781;49.480;8.512;2024-03-06T08:38:13;6.60;99.90
44117;DHT22;29781;49.480;8.512;2024-03-06T08:40:38;6.70;99.90
44117;DHT22;29781;49.480;8.512;2024-03-06T08:43:04;6.90;99.90
44117;DHT22;29781;49.480;8.512;2024-03-06T08:45:30;7.00;99.90
44117;DHT22;29781;49.480;8.512;2024-03-06T08:47:55;7.10;99.90
44117;DHT22;29781;49.480;8.512;2024-03-06T08:50:21;7.20;99.90
44117;DHT22;29781;49.480;8.512;2024-03-06T08:52:46;7.00;99.90
44117;DHT22;29781;49.480;8.512;2024-03-06T08:55:12;7.00;99.90
44117;DHT22;29781;49.480;8.512;2024-03-06T08:57:38;7.10;99.90
44117;DHT22;29781;49.480;8.512;2024-03-06T09:00:06;7.00;99.90
44117;DHT22;29781;49.480;8.512;2024-03-06T09:02:38;7.20;99.90
44117;DHT22;29781;49.480;8.512;2024-03-06T09:05:05;7.60;99.90
44117;DHT22;29781;49.480;8.512;2024-03-06T09:07:31;8.10;99.90
44117;DHT22;29781;49.480;8.512;2024-03-06T09:09:56;8.60;99.90
44117;DHT22;29781;49.480;8.512;2024-03-06T09:12:22;9.00;99.90
44117;DHT22;29781;49.480;8.512;2024-03-06T09:14:48;8.60;99.90
44117;DHT22;29781;49.480;8.512;2024-03-06T09:17:13;8.80;99.90
44117;DHT22;29781;49.480;8.512;2024-03-06T09:19:40;8.70;99.90
44117;DHT22;29781;49.480;8.512;2024-03-06T09:22:06;8.80;99.90
44117;DHT22;29781;49.480;8.512;2024-03-06T09:24:32;9.30;99.90
44117;DHT22;29781;49.480;8.512;2024-03-06T09:26:58;9.20;99.90
44117;DHT22;29781;49.480;8.512;2024-03-06T09:29:23;9.00;99.90
44117;DHT22;29781;49.480;8.512;2024-03-06T09:31:49;8.60;99.90
44117;DHT22;29781;49.480;8.512;2024-03-06T09:34:15;8.10;99.90
44117;DHT22;29781;49.480;8.512;2024-03-06T09:36:50;8.00;99.90
44117;DHT22;29781;49.480;8.512;2024-03-06T09:39:16;8.30;99.90
44117;DHT22;29781;49.480;8.512;2024-03-06T09:41:46;8.50;99.90
44117;DHT22;29781;49.480;8.512;2024-03-06T09:44:14;8.50;99.90
44117;DHT22;29781;49.480;8.512;2024-03-06T09:46:46;8.50;99.90
44117;DHT22;29781;49.480;8.512;2024-03-06T09:49:13;9.00;99.90
44117;DHT22;29781;49.480;8.512;2024-03-06T09:51:49;9.30;99.90
44117;DHT22;29781;49.480;8.512;2024-03-06T09:54:19;9.30;99.90
44117;DHT22;29781;49.480;8.512;2024-03-06T09:56:47;9.10;99.90
44117;DHT22;29781;49.480;8.512;2024-03-06T09:59:13;9.20;99.90
44117;DHT22;29781;49.480;8.512;2024-03-06T10:01:55;9.20;99.90
44117;DHT22;29781;49.480;8.512;2024-03-06T10:04:26;9.20;99.90
44117;DHT22;29781;49.480;8.512;2024-03-06T10:06:56;9.50;99.90
44117;DHT22;29781;49.480;8.512;2024-03-06T10:09:22;9.30;99.90
44117;DHT22;29781;49.480;8.512;2024-03-06T10:11:48;9.10;99.90
44117;DHT22;29781;49.480;8.512;2024-03-06T10:14:14;9.40;99.90
44117;DHT22;29781;49.480;8.512;2024-03-06T10:19:18;9.80;99.90
44117;DHT22;29781;49.480;8.512;2024-03-06T10:21:47;10.30;99.90
44117;DHT22;29781;49.480;8.512;2024-03-06T10:24:20;10.20;99.90
44117;DHT22;29781;49.480;8.512;2024-03-06T10:26:46;10.20;99.90
44117;DHT22;29781;49.480;8.512;2024-03-06T10:29:16;10.20;99.90
44117;DHT22;29781;49.480;8.512;2024-03-06T10:31:56;10.10;99.90
44117;DHT22;29781;49.480;8.512;2024-03-06T10:34:25;10.00;99.90
44117;DHT22;29781;49.480;8.512;2024-03-06T10:39:20;10.30;99.90
44117;DHT22;29781;49.480;8.512;2024-03-06T10:41:46;10.40;99.90
44117;DHT22;29781;49.480;8.512;2024-03-06T10:44:16;10.10;99.90
44117;DHT22;29781;49.480;8.512;2024-03-06T10:46:44;10.10;99.90
44117;DHT22;29781;49.480;8.512;2024-03-06T10:49:12;10.30;99.90
44117;DHT22;29781;49.480;8.512;2024-03-06T10:51:40;10.10;99.90
44117;DHT22;29781;49.480;8.512;2024-03-06T10:54:09;9.70;99.90
44117;DHT22;29781;49.480;8.512;2024-03-06T10:56:41;9.80;99.90
44117;DHT22;29781;49.480;8.512;2024-03-06T10:59:10;9.80;99.90
44117;DHT22;29781;49.480;8.512;2024-03-06T11:01:39;10.10;99.90
44117;DHT22;29781;49.480;8.512;2024-03-06T11:04:05;10.50;99.90
44117;DHT22;29781;49.480;8.512;2024-03-06T11:06:31;11.10;99.90
44117;DHT22;29781;49.480;8.512;2024-03-06T11:08:58;11.10;99.90
44117;DHT22;29781;49.480;8.512;2024-03-06T11:11:24;10.50;99.90
44117;DHT22;29781;49.480;8.512;2024-03-06T11:13:54;10.60;99.90
44117;DHT22;29781;49.480;8.512;2024-03-06T11:16:27;10.40;99.90
44117;DHT22;29781;49.480;8.512;2024-03-06T11:19:07;10.50;99.90
44117;DHT22;29781;49.480;8.512;2024-03-06T11:21:33;10.40;99.90
44117;DHT22;29781;49.480;8.512;2024-03-06T11:24:19;10.10;99.90
44117;DHT22;29781;49.480;8.512;2024-03-06T11:27:09;10.00;99.90
44117;DHT22;29781;49.480;8.512;2024-03-06T11:30:07;10.00;99.90
44117;DHT22;29781;49.480;8.512;2024-03-06T11:33:00;10.10;99.90
44117;DHT22;29781;49.480;8.512;2024-03-06T11:35:28;10.90;99.90
44117;DHT22;29781;49.480;8.512;2024-03-06T11:37:54;11.30;99.90
44117;DHT22;29781;49.480;8.512;2024-03-06T11:40:23;11.30;99.90
44117;DHT22;29781;49.480;8.512;2024-03-06T11:42:52;11.50;99.90
44117;DHT22;29781;49.480;8.512;2024-03-06T11:45:18;11.80;99.90
44117;DHT22;29781;49.480;8.512;2024-03-06T11:48:01;11.80;99.90
44117;DHT22;29781;49.480;8.512;2024-03-06T11:50:28;11.20;99.90
44117;DHT22;29781;49.480;8.512;2024-03-06T11:52:53;10.80;99.90
44117;DHT22;29781;49.480;8.512;2024-03-06T11:55:21;10.80;99.90
44117;DHT22;29781;49.480;8.512;2024-03-06T11:57:47;10.90;99.90
44117;DHT22;29781;49.480;8.512;2024-03-06T12:00:13;10.90;99.90
44117;DHT22;29781;49.480;8.512;2024-03-06T12:02:40;10.80;99.90
44117;DHT22;29781;49.480;8.512;2024-03-06T12:05:06;10.40;99.90
44117;DHT22;29781;49.480;8.512;2024-03-06T12:07:31;10.30;99.90
44117;DHT22;29781;49.480;8.512;2024-03-06T12:09:58;10.40;99.90
44117;DHT22;29781;49.480;8.512;2024-03-06T12:12:24;10.90;99.90
44117;DHT22;29781;49.480;8.512;2024-03-06T12:14:58;10.90;99.90
44117;DHT22;29781;49.480;8.512;2024-03-06T12:17:25;11.10;99.90
44117;DHT22;29781;49.480;8.512;2024-03-06T12:19:50;10.70;99.90
44117;DHT22;29781;49.480;8.512;2024-03-06T12:22:16;10.50;99.90
44117;DHT22;29781;49.480;8.512;2024-03-06T12:24:44;10.60;99.90
44117;DHT22;29781;49.480;8.512;2024-03-06T12:27:09;10.60;99.90
44117;DHT22;29781;49.480;8.512;2024-03-06T12:29:35;10.70;99.90
44117;DHT22;29781;49.480;8.512;2024-03-06T12:32:02;10.60;99.90
44117;DHT22;29781;49.480;8.512;2024-03-06T12:34:28;10.50;99.90
44117;DHT22;29781;49.480;8.512;2024-03-06T12:36:55;10.90;99.90
44117;DHT22;29781;49.480;8.512;2024-03-06T12:39:23;11.10;99.90
44117;DHT22;29781;49.480;8.512;2024-03-06T12:41:51;10.80;99.90
44117;DHT22;29781;49.480;8.512;2024-03-06T12:44:19;10.60;99.90
44117;DHT22;29781;49.480;8.512;2024-03-06T12:46:44;10.50;99.90
44117;DHT22;29781;49.480;8.512;2024-03-06T12:49:10;10.40;99.90
44117;DHT22;29781;49.480;8.512;2024-03-06T12:51:35;10.20;99.90
44117;DHT22;29781;49.480;8.512;2024-03-06T12:54:01;10.10;99.90
44117;DHT22;29781;49.480;8.512;2024-03-06T12:56:27;10.10;99.90
44117;DHT22;29781;49.480;8.512;2024-03-06T12:58:52;10.20;99.90
44117;DHT22;29781;49.480;8.512;2024-03-06T13:01:18;10.30;99.90
44117;DHT22;29781;49.480;8.512;2024-03-06T13:03:43;10.30;99.90
44117;DHT22;29781;49.480;8.512;2024-03-06T13:06:09;10.30;99.90
44117;DHT22;29781;49.480;8.512;2024-03-06T13:08:35;10.40;99.90
44117;DHT22;29781;49.480;8.512;2024-03-06T13:11:01;10.50;99.90
44117;DHT22;29781;49.480;8.512;2024-03-06T13:13:26;10.30;99.90
44117;DHT22;29781;49.480;8.512;2024-03-06T13:15:54;10.30;99.90
44117;DHT22;29781;49.480;8.512;2024-03-06T13:18:20;10.20;99.90
44117;DHT22;29781;49.480;8.512;2024-03-06T13:20:45;10.20;99.90
44117;DHT22;29781;49.480;8.512;2024-03-06T13:23:11;10.20;99.90
44117;DHT22;29781;49.480;8.512;2024-03-06T13:25:37;10.40;99.90
44117;DHT22;29781;49.480;8.512;2024-03-06T13:28:03;10.40;99.90
44117;DHT22;29781;49.480;8.512;2024-03-06T13:30:29;10.30;99.90
44117;DHT22;29781;49.480;8.512;2024-03-06T13:32:54;10.20;99.90
44117;DHT22;29781;49.480;8.512;2024-03-06T13:35:20;10.20;99.90
44117;DHT22;29781;49.480;8.512;2024-03-06T13:37:46;10.20;99.90
44117;DHT22;29781;49.480;8.512;2024-03-06T13:40:12;10.20;99.90
44117;DHT22;29781;49.480;8.512;2024-03-06T13:42:41;10.20;99.90
44117;DHT22;29781;49.480;8.512;2024-03-06T13:45:07;10.30;99.90
44117;DHT22;29781;49.480;8.512;2024-03-06T13:47:43;10.30;99.90
44117;DHT22;29781;49.480;8.512;2024-03-06T13:50:13;10.30;99.90
44117;DHT22;29781;49.480;8.512;2024-03-06T13:52:40;10.40;99.90
44117;DHT22;29781;49.480;8.512;2024-03-06T13:55:06;10.50;99.90
44117;DHT22;29781;49.480;8.512;2024-03-06T13:57:33;10.50;99.90
44117;DHT22;29781;49.480;8.512;2024-03-06T14:00:03;10.40;99.90
44117;DHT22;29781;49.480;8.512;2024-03-06T14:02:30;10.50;99.90
44117;DHT22;29781;49.480;8.512;2024-03-06T14:04:56;10.50;99.90
44117;DHT22;29781;49.480;8.512;2024-03-06T14:07:22;10.60;99.90
44117;DHT22;29781;49.480;8.512;2024-03-06T14:09:51;10.70;99.90
44117;DHT22;29781;49.480;8.512;2024-03-06T14:12:17;10.60;99.90
44117;DHT22;29781;49.480;8.512;2024-03-06T14:14:43;10.50;99.90
44117;DHT22;29781;49.480;8.512;2024-03-06T14:17:10;10.60;99.90
44117;DHT22;29781;49.480;8.512;2024-03-06T14:19:36;10.60;99.90
44117;DHT22;29781;49.480;8.512;2024-03-06T14:22:01;10.60;99.90
44117;DHT22;29781;49.480;8.512;2024-03-06T14:24:27;10.60;99.90
44117;DHT22;29781;49.480;8.512;2024-03-06T14:26:52;10.50;99.90
44117;DHT22;29781;49.480;8.512;2024-03-06T14:29:18;10.50;99.90
44117;DHT22;29781;49.480;8.512;2024-03-06T14:31:44;10.50;99.90
44117;DHT22;29781;49.480;8.512;2024-03-06T14:34:09;10.50;99.90
44117;DHT22;29781;49.480;8.512;2024-03-06T14:36:36;10.40;99.90
44117;DHT22;29781;49.480;8.512;2024-03-06T14:39:01;10.40;99.90
44117;DHT22;29781;49.480;8.512;2024-03-06T14:41:27;10.30;99.90
44117;DHT22;29781;49.480;8.512;2024-03-06T14:43:52;10.30;99.90
44117;DHT22;29781;49.480;8.512;2024-03-06T14:46:19;10.30;99.90
44117;DHT22;29781;49.480;8.512;2024-03-06T14:48:45;10.30;99.90
44117;DHT22;29781;49.480;8.512;2024-03-06T14:51:10;10.30;99.90
44117;DHT22;29781;49.480;8.512;2024-03-06T14:53:36;10.30;99.90
44117;DHT22;29781;49.480;8.512;2024-03-06T14:56:02;10.30;99.90
44117;DHT22;29781;49.480;8.512;2024-03-06T14:58:28;10.30;99.90
44117;DHT22;29781;49.480;8.512;2024-03-06T15:00:54;10.30;99.90
44117;DHT22;29781;49.480;8.512;2024-03-06T15:03:19;10.30;99.90
44117;DHT22;29781;49.480;8.512;2024-03-06T15:05:45;10.30;99.90
44117;DHT22;29781;49.480;8.512;2024-03-06T15:08:11;10.30;99.90
44117;DHT22;29781;49.480;8.512;2024-03-06T15:10:37;10.20;99.90
44117;DHT22;29781;49.480;8.512;2024-03-06T15:13:03;10.20;99.90
44117;DHT22;29781;49.480;8.512;2024-03-06T15:15:28;10.20;99.90
44117;DHT22;29781;49.480;8.512;2024-03-06T15:17:54;10.20;99.90
44117;DHT22;29781;49.480;8.512;2024-03-06T15:20:20;10.20;99.90
44117;DHT22;29781;49.480;8.512;2024-03-06T15:22:46;10.20;99.90
44117;DHT22;29781;49.480;8.512;2024-03-06T15:25:12;10.20;99.90
44117;DHT22;29781;49.480;8.512;2024-03-06T15:27:38;10.10;99.90
44117;DHT22;29781;49.480;8.512;2024-03-06T15:30:05;10.10;99.90
44117;DHT22;29781;49.480;8.512;2024-03-06T15:32:31;10.10;99.90
44117;DHT22;29781;49.480;8.512;2024-03-06T15:34:56;10.20;99.90
44117;DHT22;29781;49.480;8.512;2024-03-06T15:37:23;10.20;99.90
44117;DHT22;29781;49.480;8.512;2024-03-06T15:39:54;10.20;99.90
44117;DHT22;29781;49.480;8.512;2024-03-06T15:42:23;10.20;99.90